sensor_id;sensor_type;location;lat;lon;timestamp;P1;durP1;ratioP1;P2;durP2;ratioP2
64199;SDS011;50516;52.272;5.136;2024-02-16T00:00:39;7.88;;;3.83;;
64199;SDS011;50516;52.272;5.136;2024-02-16T00:03:04;7.57;;;3.78;;
64199;SDS011;50516;52.272;5.136;2024-02-16T00:05:30;10.55;;;4.18;;
64199;SDS011;50516;52.272;5.136;2024-02-16T00:07:55;8.90;;;3.83;;
64199;SDS011;50516;52.272;5.136;2024-02-16T00:10:20;7.55;;;3.88;;
64199;SDS011;50516;52.272;5.136;2024-02-16T00:12:46;6.45;;;3.58;;
64199;SDS011;50516;52.272;5.136;2024-02-16T00:15:12;5.55;;;3.70;;
64199;SDS011;50516;52.272;5.136;2024-02-16T00:17:37;7.28;;;4.00;;
64199;SDS011;50516;52.272;5.136;2024-02-16T00:20:03;5.60;;;3.42;;
64199;SDS011;50516;52.272;5.136;2024-02-16T00:22:29;9.23;;;4.25;;
64199;SDS011;50516;52.272;5.136;2024-02-16T00:24:55;7.97;;;4.05;;
64199;SDS011;50516;52.272;5.136;2024-02-16T00:27:20;6.65;;;3.83;;
64199;SDS011;50516;52.272;5.136;2024-02-16T00:29:45;8.40;;;4.13;;
64199;SDS011;50516;52.272;5.136;2024-02-16T00:32:13;6.32;;;3.75;;
64199;SDS011;50516;52.272;5.136;2024-02-16T00:34:40;8.18;;;3.75;;
64199;SDS011;50516;52.272;5.136;2024-02-16T00:37:06;7.22;;;4.00;;
64199;SDS011;50516;52.272;5.136;2024-02-16T00:39:36;6.15;;;3.95;;
64199;SDS011;50516;52.272;5.136;2024-02-16T00:42:04;8.25;;;3.90;;
64199;SDS011;50516;52.272;5.136;2024-02-16T00:44:30;7.03;;;3.70;;
64199;SDS011;50516;52.272;5.136;2024-02-16T00:46:56;7.97;;;4.25;;
64199;SDS011;50516;52.272;5.136;2024-02-16T00:49:21;10.73;;;3.97;;
64199;SDS011;50516;52.272;5.136;2024-02-16T00:51:47;7.78;;;3.78;;
64199;SDS011;50516;52.272;5.136;2024-02-16T00:54:12;10.32;;;3.90;;
64199;SDS011;50516;52.272;5.136;2024-02-16T00:56:38;9.25;;;3.95;;
64199;SDS011;50516;52.272;5.136;2024-02-16T00:59:03;8.57;;;3.70;;
64199;SDS011;50516;52.272;5.136;2024-02-16T01:01:29;14.95;;;4.88;;
64199;SDS011;50516;52.272;5.136;2024-02-16T01:03:54;6.70;;;4.03;;
64199;SDS011;50516;52.272;5.136;2024-02-16T01:06:20;7.40;;;3.95;;
64199;SDS011;50516;52.272;5.136;2024-02-16T01:08:45;8.10;;;4.03;;
64199;SDS011;50516;52.272;5.136;2024-02-16T01:11:14;7.47;;;3.72;;
64199;SDS011;50516;52.272;5.136;2024-02-16T01:13:39;6.38;;;3.90;;
64199;SDS011;50516;52.272;5.136;2024-02-16T01:16:05;7.30;;;3.80;;
64199;SDS011;50516;52.272;5.136;2024-02-16T01:18:30;9.93;;;3.88;;
64199;SDS011;50516;52.272;5.136;2024-02-16T01:20:57;6.25;;;3.78;;
64199;SDS011;50516;52.272;5.136;2024-02-16T01:23:23;7.97;;;3.90;;
64199;SDS011;50516;52.272;5.136;2024-02-16T01:25:48;7.40;;;3.60;;
64199;SDS011;50516;52.272;5.136;2024-02-16T01:28:14;7.28;;;3.72;;
64199;SDS011;50516;52.272;5.136;2024-02-16T01:30:39;8.35;;;3.83;;
64199;SDS011;50516;52.272;5.136;2024-02-16T01:33:05;5.45;;;3.50;;
64199;SDS011;50516;52.272;5.136;2024-02-16T01:35:32;7.35;;;4.10;;
64199;SDS011;50516;52.272;5.136;2024-02-16T01:37:57;9.55;;;4.63;;
64199;SDS011;50516;52.272;5.136;2024-02-16T01:40:23;8.80;;;4.20;;
64199;SDS011;50516;52.272;5.136;2024-02-16T01:42:51;9.00;;;3.92;;
64199;SDS011;50516;52.272;5.136;2024-02-16T01:45:17;6.88;;;3.63;;
64199;SDS011;50516;52.272;5.136;2024-02-16T01:47:42;7.88;;;4.30;;
64199;SDS011;50516;52.272;5.136;2024-02-16T01:50:09;8.15;;;3.78;;
64199;SDS011;50516;52.272;5.136;2024-02-16T01:52:35;7.25;;;4.00;;
64199;SDS011;50516;52.272;5.136;2024-02-16T01:55:02;5.75;;;3.70;;
64199;SDS011;50516;52.272;5.136;2024-02-16T01:57:35;8.77;;;4.38;;
64199;SDS011;50516;52.272;5.136;2024-02-16T02:00:01;7.90;;;3.75;;
64199;SDS011;50516;52.272;5.136;2024-02-16T02:02:26;6.63;;;3.85;;
64199;SDS011;50516;52.272;5.136;2024-02-16T02:04:52;8.85;;;4.00;;
64199;SDS011;50516;52.272;5.136;2024-02-16T02:07:18;7.18;;;3.90;;
64199;SDS011;50516;52.272;5.136;2024-02-16T02:09:43;8.15;;;3.67;;
64199;SDS011;50516;52.272;5.136;2024-02-16T02:12:09;7.97;;;4.35;;
64199;SDS011;50516;52.272;5.136;2024-02-16T02:14:35;8.35;;;3.83;;
64199;SDS011;50516;52.272;5.136;2024-02-16T02:17:01;6.65;;;3.75;;
64199;SDS011;50516;52.272;5.136;2024-02-16T02:19:27;5.82;;;3.47;;
64199;SDS011;50516;52.272;5.136;2024-02-16T02:21:52;6.65;;;3.60;;
64199;SDS011;50516;52.272;5.136;2024-02-16T02:24:17;6.85;;;3.88;;
64199;SDS011;50516;52.272;5.136;2024-02-16T02:26:43;6.85;;;4.20;;
64199;SDS011;50516;52.272;5.136;2024-02-16T02:29:08;10.25;;;3.50;;
64199;SDS011;50516;52.272;5.136;2024-02-16T02:31:33;6.50;;;3.63;;
64199;SDS011;50516;52.272;5.136;2024-02-16T02:33:59;8.45;;;3.90;;
64199;SDS011;50516;52.272;5.136;2024-02-16T02:36:25;7.63;;;3.80;;
64199;SDS011;50516;52.272;5.136;2024-02-16T02:38:50;7.00;;;3.83;;
64199;SDS011;50516;52.272;5.136;2024-02-16T02:41:16;5.60;;;3.67;;
64199;SDS011;50516;52.272;5.136;2024-02-16T02:43:44;6.82;;;4.05;;
64199;SDS011;50516;52.272;5.136;2024-02-16T02:46:09;7.82;;;3.63;;
64199;SDS011;50516;52.272;5.136;2024-02-16T02:48:39;9.02;;;4.10;;
64199;SDS011;50516;52.272;5.136;2024-02-16T02:51:05;12.65;;;3.75;;
64199;SDS011;50516;52.272;5.136;2024-02-16T02:53:30;8.13;;;4.35;;
64199;SDS011;50516;52.272;5.136;2024-02-16T02:55:55;6.25;;;4.30;;
64199;SDS011;50516;52.272;5.136;2024-02-16T02:58:21;8.02;;;3.85;;
64199;SDS011;50516;52.272;5.136;2024-02-16T03:00:46;10.95;;;3.72;;
64199;SDS011;50516;52.272;5.136;2024-02-16T03:03:11;7.60;;;3.72;;
64199;SDS011;50516;52.272;5.136;2024-02-16T03:05:40;8.48;;;3.97;;
64199;SDS011;50516;52.272;5.136;2024-02-16T03:08:07;7.65;;;4.10;;
64199;SDS011;50516;52.272;5.136;2024-02-16T03:10:32;7.00;;;4.00;;
64199;SDS011;50516;52.272;5.136;2024-02-16T03:13:00;11.75;;;4.85;;
64199;SDS011;50516;52.272;5.136;2024-02-16T03:15:26;6.53;;;3.75;;
64199;SDS011;50516;52.272;5.136;2024-02-16T03:17:51;10.25;;;4.10;;
64199;SDS011;50516;52.272;5.136;2024-02-16T03:20:16;6.93;;;3.90;;
64199;SDS011;50516;52.272;5.136;2024-02-16T03:22:42;6.60;;;3.72;;
64199;SDS011;50516;52.272;5.136;2024-02-16T03:25:07;14.68;;;4.30;;
64199;SDS011;50516;52.272;5.136;2024-02-16T03:27:32;6.13;;;3.70;;
64199;SDS011;50516;52.272;5.136;2024-02-16T03:29:58;7.15;;;4.10;;
64199;SDS011;50516;52.272;5.136;2024-02-16T03:32:24;10.45;;;4.35;;
64199;SDS011;50516;52.272;5.136;2024-02-16T03:34:49;7.00;;;3.90;;
64199;SDS011;50516;52.272;5.136;2024-02-16T03:37:15;10.93;;;3.90;;
64199;SDS011;50516;52.272;5.136;2024-02-16T03:39:41;8.63;;;4.22;;
64199;SDS011;50516;52.272;5.136;2024-02-16T03:42:06;6.95;;;3.88;;
64199;SDS011;50516;52.272;5.136;2024-02-16T03:44:32;8.00;;;4.25;;
64199;SDS011;50516;52.272;5.136;2024-02-16T03:46:57;7.88;;;4.10;;
64199;SDS011;50516;52.272;5.136;2024-02-16T03:49:22;6.20;;;3.83;;
64199;SDS011;50516;52.272;5.136;2024-02-16T03:51:48;8.05;;;4.20;;
64199;SDS011;50516;52.272;5.136;2024-02-16T03:54:13;6.07;;;3.88;;
64199;SDS011;50516;52.272;5.136;2024-02-16T03:56:38;6.55;;;4.10;;
64199;SDS011;50516;52.272;5.136;2024-02-16T03:59:03;6.57;;;3.63;;
64199;SDS011;50516;52.272;5.136;2024-02-16T04:01:30;9.38;;;4.50;;
64199;SDS011;50516;52.272;5.136;2024-02-16T04:03:55;8.13;;;4.68;;
64199;SDS011;50516;52.272;5.136;2024-02-16T04:06:21;8.43;;;4.20;;
64199;SDS011;50516;52.272;5.136;2024-02-16T04:08:46;8.25;;;4.55;;
64199;SDS011;50516;52.272;5.136;2024-02-16T04:11:13;7.93;;;4.20;;
64199;SDS011;50516;52.272;5.136;2024-02-16T04:13:40;7.32;;;4.10;;
64199;SDS011;50516;52.272;5.136;2024-02-16T04:16:05;7.95;;;4.05;;
64199;SDS011;50516;52.272;5.136;2024-02-16T04:18:31;7.38;;;3.90;;
64199;SDS011;50516;52.272;5.136;2024-02-16T04:20:56;9.90;;;4.50;;
64199;SDS011;50516;52.272;5.136;2024-02-16T04:23:21;7.60;;;3.80;;
64199;SDS011;50516;52.272;5.136;2024-02-16T04:25:46;7.57;;;4.10;;
64199;SDS011;50516;52.272;5.136;2024-02-16T04:28:12;6.25;;;3.70;;
64199;SDS011;50516;52.272;5.136;2024-02-16T04:30:38;8.15;;;4.28;;
64199;SDS011;50516;52.272;5.136;2024-02-16T04:33:03;7.20;;;4.50;;
64199;SDS011;50516;52.272;5.136;2024-02-16T04:35:29;8.40;;;3.92;;
64199;SDS011;50516;52.272;5.136;2024-02-16T04:37:54;8.27;;;4.30;;
64199;SDS011;50516;52.272;5.136;2024-02-16T04:40:19;8.10;;;4.10;;
64199;SDS011;50516;52.272;5.136;2024-02-16T04:42:45;7.55;;;3.65;;
64199;SDS011;50516;52.272;5.136;2024-02-16T04:45:11;6.05;;;3.70;;
64199;SDS011;50516;52.272;5.136;2024-02-16T04:47:37;7.13;;;4.05;;
64199;SDS011;50516;52.272;5.136;2024-02-16T04:50:03;7.10;;;3.85;;
64199;SDS011;50516;52.272;5.136;2024-02-16T04:52:29;9.27;;;4.10;;
64199;SDS011;50516;52.272;5.136;2024-02-16T04:54:54;8.40;;;4.15;;
64199;SDS011;50516;52.272;5.136;2024-02-16T04:57:20;7.03;;;4.75;;
64199;SDS011;50516;52.272;5.136;2024-02-16T04:59:45;6.90;;;3.65;;
64199;SDS011;50516;52.272;5.136;2024-02-16T05:02:11;7.55;;;4.05;;
64199;SDS011;50516;52.272;5.136;2024-02-16T05:04:36;7.88;;;4.22;;
64199;SDS011;50516;52.272;5.136;2024-02-16T05:07:01;5.30;;;4.30;;
64199;SDS011;50516;52.272;5.136;2024-02-16T05:09:27;7.03;;;3.97;;
64199;SDS011;50516;52.272;5.136;2024-02-16T05:11:52;11.13;;;4.15;;
64199;SDS011;50516;52.272;5.136;2024-02-16T05:14:17;7.18;;;4.15;;
64199;SDS011;50516;52.272;5.136;2024-02-16T05:16:43;6.47;;;4.25;;
64199;SDS011;50516;52.272;5.136;2024-02-16T05:19:09;6.38;;;3.95;;
64199;SDS011;50516;52.272;5.136;2024-02-16T05:21:35;6.32;;;4.00;;
64199;SDS011;50516;52.272;5.136;2024-02-16T05:24:00;8.05;;;4.30;;
64199;SDS011;50516;52.272;5.136;2024-02-16T05:26:25;6.85;;;4.10;;
64199;SDS011;50516;52.272;5.136;2024-02-16T05:28:51;9.75;;;4.32;;
64199;SDS011;50516;52.272;5.136;2024-02-16T05:31:17;5.70;;;3.55;;
64199;SDS011;50516;52.272;5.136;2024-02-16T05:33:49;11.73;;;4.85;;
64199;SDS011;50516;52.272;5.136;2024-02-16T05:36:19;11.55;;;4.35;;
64199;SDS011;50516;52.272;5.136;2024-02-16T05:38:50;8.02;;;4.20;;
64199;SDS011;50516;52.272;5.136;2024-02-16T05:41:16;7.88;;;4.45;;
64199;SDS011;50516;52.272;5.136;2024-02-16T05:43:43;5.95;;;4.25;;
64199;SDS011;50516;52.272;5.136;2024-02-16T05:46:15;6.90;;;4.60;;
64199;SDS011;50516;52.272;5.136;2024-02-16T05:48:42;6.68;;;4.20;;
64199;SDS011;50516;52.272;5.136;2024-02-16T05:51:08;6.90;;;4.43;;
64199;SDS011;50516;52.272;5.136;2024-02-16T05:53:33;6.80;;;3.60;;
64199;SDS011;50516;52.272;5.136;2024-02-16T05:55:59;8.13;;;4.32;;
64199;SDS011;50516;52.272;5.136;2024-02-16T05:58:25;6.28;;;4.38;;
64199;SDS011;50516;52.272;5.136;2024-02-16T06:00:51;9.30;;;4.55;;
64199;SDS011;50516;52.272;5.136;2024-02-16T06:03:16;8.30;;;3.92;;
64199;SDS011;50516;52.272;5.136;2024-02-16T06:05:42;9.00;;;6.45;;
64199;SDS011;50516;52.272;5.136;2024-02-16T06:08:10;8.27;;;3.97;;
64199;SDS011;50516;52.272;5.136;2024-02-16T06:10:36;8.98;;;4.15;;
64199;SDS011;50516;52.272;5.136;2024-02-16T06:13:01;6.35;;;4.10;;
64199;SDS011;50516;52.272;5.136;2024-02-16T06:15:26;6.15;;;4.30;;
64199;SDS011;50516;52.272;5.136;2024-02-16T06:17:52;6.85;;;4.00;;
64199;SDS011;50516;52.272;5.136;2024-02-16T06:20:17;8.45;;;4.55;;
64199;SDS011;50516;52.272;5.136;2024-02-16T06:22:43;6.85;;;4.63;;
64199;SDS011;50516;52.272;5.136;2024-02-16T06:25:08;9.45;;;4.25;;
64199;SDS011;50516;52.272;5.136;2024-02-16T06:27:34;6.38;;;4.40;;
64199;SDS011;50516;52.272;5.136;2024-02-16T06:30:00;9.07;;;4.70;;
64199;SDS011;50516;52.272;5.136;2024-02-16T06:32:25;9.07;;;4.57;;
64199;SDS011;50516;52.272;5.136;2024-02-16T06:34:51;7.47;;;4.38;;
64199;SDS011;50516;52.272;5.136;2024-02-16T06:37:17;7.20;;;4.47;;
64199;SDS011;50516;52.272;5.136;2024-02-16T06:39:42;8.23;;;4.63;;
64199;SDS011;50516;52.272;5.136;2024-02-16T06:42:08;8.30;;;4.35;;
64199;SDS011;50516;52.272;5.136;2024-02-16T06:44:33;7.25;;;4.60;;
64199;SDS011;50516;52.272;5.136;2024-02-16T06:46:58;5.80;;;3.80;;
64199;SDS011;50516;52.272;5.136;2024-02-16T06:49:24;8.85;;;5.00;;
64199;SDS011;50516;52.272;5.136;2024-02-16T06:51:49;8.00;;;4.22;;
64199;SDS011;50516;52.272;5.136;2024-02-16T06:54:14;8.45;;;5.10;;
64199;SDS011;50516;52.272;5.136;2024-02-16T06:56:39;6.97;;;4.43;;
64199;SDS011;50516;52.272;5.136;2024-02-16T06:59:05;7.05;;;4.43;;
64199;SDS011;50516;52.272;5.136;2024-02-16T07:01:30;7.65;;;4.55;;
64199;SDS011;50516;52.272;5.136;2024-02-16T07:03:55;7.40;;;4.50;;
64199;SDS011;50516;52.272;5.136;2024-02-16T07:06:21;8.32;;;4.55;;
64199;SDS011;50516;52.272;5.136;2024-02-16T07:08:46;7.55;;;4.65;;
64199;SDS011;50516;52.272;5.136;2024-02-16T07:11:12;8.10;;;4.65;;
64199;SDS011;50516;52.272;5.136;2024-02-16T07:13:38;11.85;;;4.95;;
64199;SDS011;50516;52.272;5.136;2024-02-16T07:16:05;9.00;;;4.80;;
64199;SDS011;50516;52.272;5.136;2024-02-16T07:18:33;10.63;;;4.95;;
64199;SDS011;50516;52.272;5.136;2024-02-16T07:20:59;7.78;;;4.95;;
64199;SDS011;50516;52.272;5.136;2024-02-16T07:23:25;7.80;;;5.15;;
64199;SDS011;50516;52.272;5.136;2024-02-16T07:25:51;9.23;;;5.07;;
64199;SDS011;50516;52.272;5.136;2024-02-16T07:28:16;7.63;;;4.93;;
64199;SDS011;50516;52.272;5.136;2024-02-16T07:30:41;10.27;;;4.78;;
64199;SDS011;50516;52.272;5.136;2024-02-16T07:33:07;9.40;;;5.55;;
64199;SDS011;50516;52.272;5.136;2024-02-16T07:35:35;8.27;;;4.60;;
64199;SDS011;50516;52.272;5.136;2024-02-16T07:38:03;11.70;;;5.00;;
64199;SDS011;50516;52.272;5.136;2024-02-16T07:40:28;8.75;;;4.55;;
64199;SDS011;50516;52.272;5.136;2024-02-16T07:42:54;11.10;;;5.78;;
64199;SDS011;50516;52.272;5.136;2024-02-16T07:45:19;9.73;;;4.85;;
64199;SDS011;50516;52.272;5.136;2024-02-16T07:47:45;9.82;;;4.80;;
64199;SDS011;50516;52.272;5.136;2024-02-16T07:50:11;11.43;;;5.72;;
64199;SDS011;50516;52.272;5.136;2024-02-16T07:52:37;9.43;;;4.88;;
64199;SDS011;50516;52.272;5.136;2024-02-16T07:55:04;9.75;;;5.25;;
64199;SDS011;50516;52.272;5.136;2024-02-16T07:57:30;9.63;;;5.65;;
64199;SDS011;50516;52.272;5.136;2024-02-16T07:59:56;8.60;;;4.75;;
64199;SDS011;50516;52.272;5.136;2024-02-16T08:02:21;7.65;;;4.50;;
64199;SDS011;50516;52.272;5.136;2024-02-16T08:04:47;8.73;;;5.05;;
64199;SDS011;50516;52.272;5.136;2024-02-16T08:07:13;8.02;;;5.20;;
64199;SDS011;50516;52.272;5.136;2024-02-16T08:09:38;9.90;;;5.00;;
64199;SDS011;50516;52.272;5.136;2024-02-16T08:12:04;9.10;;;5.32;;
64199;SDS011;50516;52.272;5.136;2024-02-16T08:14:31;11.27;;;5.72;;
64199;SDS011;50516;52.272;5.136;2024-02-16T08:16:57;9.57;;;5.47;;
64199;SDS011;50516;52.272;5.136;2024-02-16T08:19:23;9.93;;;5.10;;
64199;SDS011;50516;52.272;5.136;2024-02-16T08:21:48;8.85;;;5.65;;
64199;SDS011;50516;52.272;5.136;2024-02-16T08:24:13;10.30;;;5.10;;
64199;SDS011;50516;52.272;5.136;2024-02-16T08:26:39;9.98;;;5.55;;
64199;SDS011;50516;52.272;5.136;2024-02-16T08:29:04;12.02;;;5.95;;
64199;SDS011;50516;52.272;5.136;2024-02-16T08:31:29;11.90;;;5.60;;
64199;SDS011;50516;52.272;5.136;2024-02-16T08:33:55;8.35;;;4.90;;
64199;SDS011;50516;52.272;5.136;2024-02-16T08:36:20;9.18;;;5.82;;
64199;SDS011;50516;52.272;5.136;2024-02-16T08:38:52;8.65;;;5.20;;
64199;SDS011;50516;52.272;5.136;2024-02-16T08:41:18;11.23;;;6.35;;
64199;SDS011;50516;52.272;5.136;2024-02-16T08:43:44;8.88;;;5.18;;
64199;SDS011;50516;52.272;5.136;2024-02-16T08:46:09;11.85;;;5.78;;
64199;SDS011;50516;52.272;5.136;2024-02-16T08:48:35;9.65;;;5.20;;
64199;SDS011;50516;52.272;5.136;2024-02-16T08:51:00;12.93;;;5.90;;
64199;SDS011;50516;52.272;5.136;2024-02-16T08:53:26;14.43;;;5.78;;
64199;SDS011;50516;52.272;5.136;2024-02-16T08:55:51;11.57;;;5.80;;
64199;SDS011;50516;52.272;5.136;2024-02-16T08:58:16;9.60;;;5.40;;
64199;SDS011;50516;52.272;5.136;2024-02-16T09:00:42;9.90;;;5.85;;
64199;SDS011;50516;52.272;5.136;2024-02-16T09:03:07;8.75;;;5.85;;
64199;SDS011;50516;52.272;5.136;2024-02-16T09:05:33;11.68;;;6.35;;
64199;SDS011;50516;52.272;5.136;2024-02-16T09:07:59;10.77;;;6.35;;
64199;SDS011;50516;52.272;5.136;2024-02-16T09:10:24;9.73;;;5.82;;
64199;SDS011;50516;52.272;5.136;2024-02-16T09:12:49;11.57;;;5.80;;
64199;SDS011;50516;52.272;5.136;2024-02-16T09:15:16;10.77;;;5.85;;
64199;SDS011;50516;52.272;5.136;2024-02-16T09:17:42;9.82;;;6.15;;
64199;SDS011;50516;52.272;5.136;2024-02-16T09:20:08;10.68;;;5.88;;
64199;SDS011;50516;52.272;5.136;2024-02-16T09:22:34;10.63;;;6.10;;
64199;SDS011;50516;52.272;5.136;2024-02-16T09:25:01;8.90;;;5.68;;
64199;SDS011;50516;52.272;5.136;2024-02-16T09:27:26;10.02;;;5.18;;
64199;SDS011;50516;52.272;5.136;2024-02-16T09:29:52;14.80;;;5.90;;
64199;SDS011;50516;52.272;5.136;2024-02-16T09:32:17;13.63;;;6.43;;
64199;SDS011;50516;52.272;5.136;2024-02-16T09:34:43;9.02;;;5.28;;
64199;SDS011;50516;52.272;5.136;2024-02-16T09:37:08;11.30;;;5.95;;
64199;SDS011;50516;52.272;5.136;2024-02-16T09:39:33;12.52;;;6.47;;
64199;SDS011;50516;52.272;5.136;2024-02-16T09:41:59;10.80;;;6.38;;
64199;SDS011;50516;52.272;5.136;2024-02-16T09:44:25;10.80;;;6.18;;
64199;SDS011;50516;52.272;5.136;2024-02-16T09:46:52;14.52;;;6.32;;
64199;SDS011;50516;52.272;5.136;2024-02-16T09:49:18;11.23;;;6.35;;
64199;SDS011;50516;52.272;5.136;2024-02-16T09:51:44;11.40;;;6.03;;
64199;SDS011;50516;52.272;5.136;2024-02-16T09:54:10;11.38;;;6.28;;
64199;SDS011;50516;52.272;5.136;2024-02-16T09:56:35;9.60;;;6.53;;
64199;SDS011;50516;52.272;5.136;2024-02-16T09:59:00;12.85;;;7.03;;
64199;SDS011;50516;52.272;5.136;2024-02-16T10:01:25;10.77;;;6.78;;
64199;SDS011;50516;52.272;5.136;2024-02-16T10:03:51;14.43;;;7.13;;
64199;SDS011;50516;52.272;5.136;2024-02-16T10:06:16;12.85;;;6.40;;
64199;SDS011;50516;52.272;5.136;2024-02-16T10:11:14;13.35;;;6.68;;
64199;SDS011;50516;52.272;5.136;2024-02-16T10:13:40;19.10;;;7.75;;
64199;SDS011;50516;52.272;5.136;2024-02-16T10:16:07;12.48;;;6.75;;
64199;SDS011;50516;52.272;5.136;2024-02-16T10:18:36;13.13;;;7.95;;
64199;SDS011;50516;52.272;5.136;2024-02-16T10:21:02;18.83;;;8.48;;
64199;SDS011;50516;52.272;5.136;2024-02-16T10:23:28;15.77;;;8.52;;
64199;SDS011;50516;52.272;5.136;2024-02-16T10:25:54;19.63;;;9.95;;
64199;SDS011;50516;52.272;5.136;2024-02-16T10:28:20;23.50;;;12.25;;
64199;SDS011;50516;52.272;5.136;2024-02-16T10:30:52;28.85;;;12.98;;
64199;SDS011;50516;52.272;5.136;2024-02-16T10:33:27;24.50;;;14.27;;
64199;SDS011;50516;52.272;5.136;2024-02-16T10:35:56;29.52;;;14.40;;
64199;SDS011;50516;52.272;5.136;2024-02-16T10:38:23;30.00;;;15.93;;
64199;SDS011;50516;52.272;5.136;2024-02-16T10:40:50;35.95;;;14.43;;
64199;SDS011;50516;52.272;5.136;2024-02-16T10:43:16;26.30;;;14.02;;
64199;SDS011;50516;52.272;5.136;2024-02-16T10:45:42;31.77;;;13.98;;
64199;SDS011;50516;52.272;5.136;2024-02-16T10:48:09;31.48;;;13.48;;
64199;SDS011;50516;52.272;5.136;2024-02-16T10:50:35;23.52;;;11.55;;
64199;SDS011;50516;52.272;5.136;2024-02-16T10:53:04;23.98;;;11.25;;
64199;SDS011;50516;52.272;5.136;2024-02-16T10:55:36;23.33;;;11.00;;
64199;SDS011;50516;52.272;5.136;2024-02-16T10:58:01;23.40;;;11.73;;
64199;SDS011;50516;52.272;5.136;2024-02-16T11:00:27;24.02;;;11.13;;
64199;SDS011;50516;52.272;5.136;2024-02-16T11:02:55;24.85;;;10.57;;
64199;SDS011;50516;52.272;5.136;2024-02-16T11:08:04;18.73;;;10.15;;
64199;SDS011;50516;52.272;5.136;2024-02-16T11:10:36;21.45;;;9.43;;
64199;SDS011;50516;52.272;5.136;2024-02-16T11:13:02;16.55;;;8.45;;
64199;SDS011;50516;52.272;5.136;2024-02-16T11:15:31;16.10;;;9.15;;
64199;SDS011;50516;52.272;5.136;2024-02-16T11:17:58;21.17;;;9.02;;
64199;SDS011;50516;52.272;5.136;2024-02-16T11:20:29;16.77;;;9.27;;
64199;SDS011;50516;52.272;5.136;2024-02-16T11:23:06;14.70;;;8.13;;
64199;SDS011;50516;52.272;5.136;2024-02-16T11:25:33;14.43;;;9.35;;
64199;SDS011;50516;52.272;5.136;2024-02-16T11:27:59;13.10;;;8.13;;
64199;SDS011;50516;52.272;5.136;2024-02-16T11:30:25;14.55;;;8.68;;
64199;SDS011;50516;52.272;5.136;2024-02-16T11:32:53;12.15;;;7.07;;
64199;SDS011;50516;52.272;5.136;2024-02-16T11:35:19;13.02;;;7.38;;
64199;SDS011;50516;52.272;5.136;2024-02-16T11:37:44;13.57;;;7.68;;
64199;SDS011;50516;52.272;5.136;2024-02-16T11:40:12;11.88;;;6.22;;
64199;SDS011;50516;52.272;5.136;2024-02-16T11:42:38;9.32;;;6.25;;
64199;SDS011;50516;52.272;5.136;2024-02-16T11:45:03;11.77;;;7.07;;
64199;SDS011;50516;52.272;5.136;2024-02-16T11:47:29;12.10;;;7.40;;
64199;SDS011;50516;52.272;5.136;2024-02-16T11:50:04;10.52;;;7.18;;
64199;SDS011;50516;52.272;5.136;2024-02-16T11:52:32;9.98;;;6.57;;
64199;SDS011;50516;52.272;5.136;2024-02-16T11:54:59;11.20;;;7.25;;
64199;SDS011;50516;52.272;5.136;2024-02-16T11:57:25;11.32;;;7.70;;
64199;SDS011;50516;52.272;5.136;2024-02-16T11:59:52;11.20;;;6.68;;
64199;SDS011;50516;52.272;5.136;2024-02-16T12:02:18;12.07;;;7.40;;
64199;SDS011;50516;52.272;5.136;2024-02-16T12:04:45;11.25;;;7.40;;
64199;SDS011;50516;52.272;5.136;2024-02-16T12:07:12;10.35;;;7.07;;
64199;SDS011;50516;52.272;5.136;2024-02-16T12:09:39;12.57;;;7.45;;
64199;SDS011;50516;52.272;5.136;2024-02-16T12:12:04;10.13;;;7.28;;
64199;SDS011;50516;52.272;5.136;2024-02-16T12:14:30;11.02;;;6.85;;
64199;SDS011;50516;52.272;5.136;2024-02-16T12:16:56;9.40;;;5.78;;
64199;SDS011;50516;52.272;5.136;2024-02-16T12:19:23;12.57;;;6.10;;
64199;SDS011;50516;52.272;5.136;2024-02-16T12:21:52;9.18;;;6.32;;
64199;SDS011;50516;52.272;5.136;2024-02-16T12:24:19;7.60;;;5.68;;
64199;SDS011;50516;52.272;5.136;2024-02-16T12:26:45;7.85;;;4.95;;
64199;SDS011;50516;52.272;5.136;2024-02-16T12:29:11;8.10;;;5.70;;
64199;SDS011;50516;52.272;5.136;2024-02-16T12:31:41;7.05;;;5.38;;
64199;SDS011;50516;52.272;5.136;2024-02-16T12:34:10;8.77;;;5.57;;
64199;SDS011;50516;52.272;5.136;2024-02-16T12:36:39;8.48;;;5.30;;
64199;SDS011;50516;52.272;5.136;2024-02-16T12:39:05;7.25;;;4.70;;
64199;SDS011;50516;52.272;5.136;2024-02-16T12:41:31;8.82;;;5.07;;
64199;SDS011;50516;52.272;5.136;2024-02-16T12:44:00;9.43;;;5.22;;
64199;SDS011;50516;52.272;5.136;2024-02-16T12:46:26;7.97;;;5.20;;
64199;SDS011;50516;52.272;5.136;2024-02-16T12:48:53;7.05;;;4.28;;
64199;SDS011;50516;52.272;5.136;2024-02-16T12:51:18;7.22;;;4.95;;
64199;SDS011;50516;52.272;5.136;2024-02-16T12:53:44;7.95;;;4.78;;
64199;SDS011;50516;52.272;5.136;2024-02-16T12:56:09;7.90;;;4.63;;
64199;SDS011;50516;52.272;5.136;2024-02-16T12:58:35;8.45;;;4.30;;
64199;SDS011;50516;52.272;5.136;2024-02-16T13:01:01;9.18;;;4.38;;
64199;SDS011;50516;52.272;5.136;2024-02-16T13:03:27;6.70;;;4.40;;
64199;SDS011;50516;52.272;5.136;2024-02-16T13:05:53;6.82;;;4.00;;
64199;SDS011;50516;52.272;5.136;2024-02-16T13:08:18;5.70;;;3.75;;
64199;SDS011;50516;52.272;5.136;2024-02-16T13:10:44;5.97;;;3.53;;
64199;SDS011;50516;52.272;5.136;2024-02-16T13:13:09;9.13;;;3.55;;
64199;SDS011;50516;52.272;5.136;2024-02-16T13:15:34;8.02;;;3.65;;
64199;SDS011;50516;52.272;5.136;2024-02-16T13:18:00;8.25;;;4.07;;
64199;SDS011;50516;52.272;5.136;2024-02-16T13:20:25;5.90;;;3.78;;
64199;SDS011;50516;52.272;5.136;2024-02-16T13:22:50;8.18;;;4.18;;
64199;SDS011;50516;52.272;5.136;2024-02-16T13:25:16;7.28;;;4.32;;
64199;SDS011;50516;52.272;5.136;2024-02-16T13:27:41;7.35;;;4.40;;
64199;SDS011;50516;52.272;5.136;2024-02-16T13:30:07;5.82;;;4.53;;
64199;SDS011;50516;52.272;5.136;2024-02-16T13:32:33;7.85;;;4.18;;
64199;SDS011;50516;52.272;5.136;2024-02-16T13:34:59;9.63;;;4.80;;
64199;SDS011;50516;52.272;5.136;2024-02-16T13:37:24;7.35;;;4.38;;
64199;SDS011;50516;52.272;5.136;2024-02-16T13:39:49;9.90;;;4.53;;
64199;SDS011;50516;52.272;5.136;2024-02-16T13:42:15;9.27;;;4.30;;
64199;SDS011;50516;52.272;5.136;2024-02-16T13:44:41;7.40;;;4.75;;
64199;SDS011;50516;52.272;5.136;2024-02-16T13:47:08;7.53;;;4.32;;
64199;SDS011;50516;52.272;5.136;2024-02-16T13:49:33;7.90;;;4.50;;
64199;SDS011;50516;52.272;5.136;2024-02-16T13:51:59;9.73;;;4.70;;
64199;SDS011;50516;52.272;5.136;2024-02-16T13:54:25;8.48;;;4.90;;
64199;SDS011;50516;52.272;5.136;2024-02-16T13:56:50;8.00;;;4.05;;
64199;SDS011;50516;52.272;5.136;2024-02-16T13:59:16;8.55;;;4.88;;
64199;SDS011;50516;52.272;5.136;2024-02-16T14:01:41;8.43;;;4.90;;
64199;SDS011;50516;52.272;5.136;2024-02-16T14:04:07;7.18;;;4.28;;
64199;SDS011;50516;52.272;5.136;2024-02-16T14:06:33;7.03;;;4.95;;
64199;SDS011;50516;52.272;5.136;2024-02-16T14:08:58;8.13;;;4.63;;
64199;SDS011;50516;52.272;5.136;2024-02-16T14:11:23;6.82;;;4.20;;
64199;SDS011;50516;52.272;5.136;2024-02-16T14:13:49;7.75;;;4.18;;
64199;SDS011;50516;52.272;5.136;2024-02-16T14:16:15;4.53;;;3.47;;
64199;SDS011;50516;52.272;5.136;2024-02-16T14:18:40;6.22;;;4.18;;
64199;SDS011;50516;52.272;5.136;2024-02-16T14:21:06;6.15;;;4.43;;
64199;SDS011;50516;52.272;5.136;2024-02-16T14:23:32;6.80;;;4.30;;
64199;SDS011;50516;52.272;5.136;2024-02-16T14:25:57;7.53;;;4.68;;
64199;SDS011;50516;52.272;5.136;2024-02-16T14:28:23;8.57;;;4.97;;
64199;SDS011;50516;52.272;5.136;2024-02-16T14:30:49;11.82;;;5.45;;
64199;SDS011;50516;52.272;5.136;2024-02-16T14:33:14;9.35;;;6.63;;
64199;SDS011;50516;52.272;5.136;2024-02-16T14:35:42;9.05;;;5.88;;
64199;SDS011;50516;52.272;5.136;2024-02-16T14:38:07;9.63;;;6.60;;
64199;SDS011;50516;52.272;5.136;2024-02-16T14:40:33;10.57;;;6.50;;